createdAt,value
2023-04-30T00:00:36.491Z,20.01
2023-04-30T00:03:24.997Z,19.97
2023-04-30T00:05:53.740Z,19.99
2023-04-30T00:08:21.871Z,19.77
2023-04-30T00:10:49.760Z,19.97
2023-04-30T00:13:19.251Z,19.92
2023-04-30T00:15:47.080Z,20.03
2023-04-30T00:18:15.190Z,20.11
2023-04-30T00:20:42.885Z,19.91
2023-04-30T00:23:11.381Z,19.90
2023-04-30T00:25:39.173Z,19.85
2023-04-30T00:28:07.290Z,19.86
2023-04-30T00:30:35.251Z,19.98
2023-04-30T00:33:03.426Z,19.84
2023-04-30T00:35:31.412Z,19.84
2023-04-30T00:37:59.602Z,19.87
2023-04-30T00:40:27.439Z,19.78
2023-04-30T00:42:56.101Z,19.64
2023-04-30T00:45:23.898Z,19.52
2023-04-30T00:47:52.442Z,19.64
2023-04-30T00:50:20.559Z,19.72
2023-04-30T00:52:49.161Z,19.83
2023-04-30T00:55:17.600Z,19.64
2023-04-30T00:57:47.113Z,19.51
2023-04-30T01:00:15.406Z,19.53
2023-04-30T01:02:44.434Z,19.34
2023-04-30T01:05:12.921Z,19.51
2023-04-30T01:07:46.783Z,19.40
2023-04-30T01:10:15.778Z,19.83
2023-04-30T01:12:56.897Z,19.69
2023-04-30T01:16:03.401Z,19.53
2023-04-30T01:18:42.371Z,19.36
2023-04-30T01:21:10.608Z,19.60
2023-04-30T01:24:13.855Z,19.65
2023-04-30T01:27:29.626Z,19.47
2023-04-30T01:29:58.327Z,19.32
2023-04-30T01:32:27.182Z,19.18
2023-04-30T01:34:55.621Z,19.25
2023-04-30T01:37:38.557Z,19.11
2023-04-30T01:40:41.318Z,19.26
2023-04-30T01:43:20.269Z,19.22
2023-04-30T01:46:02.067Z,19.21
2023-04-30T01:48:40.636Z,19.09
2023-04-30T01:51:17.688Z,19.06
2023-04-30T01:53:46.611Z,19.00
2023-04-30T01:56:30.761Z,19.08
2023-04-30T01:59:00.982Z,19.25
2023-04-30T02:01:32.224Z,19.41
2023-04-30T02:04:00.868Z,19.12
2023-04-30T02:06:30.447Z,18.59
2023-04-30T02:09:04.514Z,18.39
2023-04-30T02:11:33.106Z,17.93
2023-04-30T02:14:00.995Z,18.01
2023-04-30T02:16:29.372Z,17.96
2023-04-30T02:18:57.189Z,18.10
2023-04-30T02:21:25.985Z,18.30
2023-04-30T02:23:54.210Z,18.64
2023-04-30T02:26:22.397Z,18.50
2023-04-30T02:28:50.262Z,18.78
2023-04-30T02:31:18.776Z,18.75
2023-04-30T02:33:47.014Z,18.76
2023-04-30T02:36:15.171Z,18.76
2023-04-30T02:38:42.966Z,18.46
2023-04-30T02:41:11.046Z,18.44
2023-04-30T02:43:38.997Z,18.20
2023-04-30T02:46:07.227Z,17.81
2023-04-30T02:48:35.074Z,17.78
2023-04-30T02:51:04.891Z,17.94
2023-04-30T02:53:32.692Z,17.99
2023-04-30T02:56:00.922Z,17.98
2023-04-30T02:58:28.747Z,18.22
2023-04-30T03:00:57.683Z,18.23
2023-04-30T03:03:25.591Z,18.18
2023-04-30T03:05:57.125Z,18.20
2023-04-30T03:08:25.280Z,18.17
2023-04-30T03:10:53.449Z,18.50
2023-04-30T03:13:21.320Z,18.29
2023-04-30T03:15:49.399Z,18.29
2023-04-30T03:18:17.749Z,18.23
2023-04-30T03:20:46.022Z,18.12
2023-04-30T03:23:14.093Z,17.73
2023-04-30T03:25:42.316Z,17.75
2023-04-30T03:28:10.388Z,17.62
2023-04-30T03:30:38.838Z,17.81
2023-04-30T03:33:06.938Z,17.79
2023-04-30T03:35:35.402Z,17.76
2023-04-30T03:38:03.496Z,17.85
2023-04-30T03:40:31.828Z,17.93
2023-04-30T03:42:59.663Z,18.11
2023-04-30T03:45:27.837Z,18.05
2023-04-30T03:47:55.799Z,18.28
2023-04-30T03:50:24.023Z,18.22
2023-04-30T03:52:51.948Z,18.21
2023-04-30T03:55:20.166Z,18.10
2023-04-30T03:57:47.980Z,18.16
2023-04-30T04:00:16.150Z,18.17
2023-04-30T04:02:49.300Z,18.24
2023-04-30T04:05:17.520Z,18.26
2023-04-30T04:07:46.959Z,18.49
2023-04-30T04:10:15.730Z,18.30
2023-04-30T04:12:44.022Z,18.34
2023-04-30T04:15:12.281Z,18.12
2023-04-30T04:17:40.428Z,18.11
2023-04-30T04:20:10.528Z,18.04
2023-04-30T04:22:39.938Z,18.03
2023-04-30T04:25:10.121Z,18.36
2023-04-30T04:27:38.842Z,18.30
2023-04-30T04:30:07.785Z,18.23
2023-04-30T04:32:46.777Z,18.23
2023-04-30T04:35:16.310Z,18.05
2023-04-30T04:37:44.297Z,18.22
2023-04-30T04:40:12.734Z,18.12
2023-04-30T04:42:41.168Z,18.24
2023-04-30T04:45:10.139Z,18.41
2023-04-30T04:47:38.524Z,18.33
2023-04-30T04:50:07.979Z,18.16
2023-04-30T04:52:36.229Z,18.23
2023-04-30T04:55:05.426Z,18.13
2023-04-30T04:57:33.870Z,18.27
2023-04-30T05:00:02.268Z,18.37
2023-04-30T05:02:30.743Z,18.65
2023-04-30T05:04:59.269Z,18.62
2023-04-30T05:07:27.170Z,18.59
2023-04-30T05:09:56.004Z,18.66
2023-04-30T05:12:24.192Z,18.67
2023-04-30T05:14:52.602Z,18.63
2023-04-30T05:17:20.688Z,18.62
2023-04-30T05:19:50.798Z,18.57
2023-04-30T05:22:18.751Z,18.66
2023-04-30T05:24:47.056Z,18.59
2023-04-30T05:27:15.136Z,18.53
2023-04-30T05:29:43.719Z,18.73
2023-04-30T05:32:11.811Z,18.62
2023-04-30T05:34:40.148Z,18.70
2023-04-30T05:37:08.054Z,18.95
2023-04-30T05:39:36.401Z,18.81
2023-04-30T05:42:04.357Z,18.91
2023-04-30T05:44:32.661Z,19.08
2023-04-30T05:47:00.578Z,19.02
2023-04-30T05:49:28.763Z,19.14
2023-04-30T05:51:56.736Z,18.95
2023-04-30T05:54:25.067Z,19.04
2023-04-30T05:56:52.957Z,19.25
2023-04-30T05:59:21.167Z,19.25
2023-04-30T06:01:49.127Z,19.32
2023-04-30T06:04:17.779Z,19.49
2023-04-30T06:06:46.025Z,19.44
2023-04-30T06:09:14.391Z,19.02
2023-04-30T06:11:42.753Z,19.14
2023-04-30T06:14:11.491Z,19.15
2023-04-30T06:16:39.412Z,19.61
2023-04-30T06:19:07.776Z,19.62
2023-04-30T06:21:35.713Z,19.60
2023-04-30T06:24:04.194Z,19.68
2023-04-30T06:26:32.971Z,19.86
2023-04-30T06:29:01.314Z,19.89
2023-04-30T06:31:29.205Z,20.03
2023-04-30T06:33:57.645Z,20.22
2023-04-30T06:36:25.585Z,20.18
2023-04-30T06:38:53.963Z,20.51
2023-04-30T06:41:22.009Z,20.41
2023-04-30T06:43:50.277Z,20.60
2023-04-30T06:46:18.348Z,20.57
2023-04-30T06:48:46.614Z,20.55
2023-04-30T06:51:14.588Z,20.53
2023-04-30T06:53:43.116Z,20.50
2023-04-30T06:56:11.088Z,20.44
2023-04-30T06:58:39.574Z,20.78
2023-04-30T07:01:07.528Z,20.95
2023-04-30T07:03:36.630Z,20.89
2023-04-30T07:06:04.793Z,21.08
2023-04-30T07:08:33.100Z,21.17
2023-04-30T07:11:00.982Z,21.21
2023-04-30T07:13:29.154Z,21.29
2023-04-30T07:15:57.208Z,21.27
2023-04-30T07:18:25.725Z,21.23
2023-04-30T07:20:53.635Z,21.28
2023-04-30T07:23:22.115Z,21.33
2023-04-30T07:25:50.241Z,21.43
2023-04-30T07:28:18.430Z,21.66
2023-04-30T07:30:46.384Z,21.66
2023-04-30T07:33:14.719Z,21.49
2023-04-30T07:35:42.820Z,21.84
2023-04-30T07:38:11.218Z,21.74
2023-04-30T07:40:39.190Z,22.22
2023-04-30T07:43:07.680Z,22.19
2023-04-30T07:45:36.915Z,22.63
2023-04-30T07:48:05.474Z,22.69
2023-04-30T07:50:37.319Z,23.16
2023-04-30T07:53:09.865Z,23.36
2023-04-30T07:55:37.821Z,23.02
2023-04-30T07:58:06.106Z,23.07
2023-04-30T08:00:34.013Z,23.02
2023-04-30T08:03:02.445Z,22.64
2023-04-30T08:05:30.523Z,22.54
2023-04-30T08:07:58.735Z,22.83
2023-04-30T08:10:27.409Z,22.47
2023-04-30T08:12:55.573Z,22.63
2023-04-30T08:15:23.632Z,22.80
2023-04-30T08:17:52.945Z,23.02
2023-04-30T08:20:23.772Z,22.70
2023-04-30T08:22:52.398Z,23.00
2023-04-30T08:25:20.680Z,23.35
2023-04-30T08:27:49.196Z,23.52
2023-04-30T08:30:17.468Z,23.14
2023-04-30T08:32:46.094Z,23.31
2023-04-30T08:35:14.136Z,23.43
2023-04-30T08:37:42.267Z,23.45
2023-04-30T08:40:12.238Z,23.30
2023-04-30T08:42:54.257Z,23.27
2023-04-30T08:45:22.362Z,23.03
2023-04-30T08:47:50.928Z,23.36
2023-04-30T08:50:18.926Z,23.36
2023-04-30T08:52:47.207Z,22.94
2023-04-30T08:55:15.253Z,23.09
2023-04-30T08:57:43.505Z,23.26
2023-04-30T09:00:11.813Z,23.28
2023-04-30T09:02:42.485Z,23.25
2023-04-30T09:05:12.783Z,23.59
2023-04-30T09:10:25.815Z,23.58
2023-04-30T09:13:05.855Z,23.82
2023-04-30T09:15:35.283Z,24.39
2023-04-30T09:18:11.215Z,24.52
2023-04-30T09:20:55.240Z,24.50
2023-04-30T09:23:24.384Z,24.28
2023-04-30T09:25:52.340Z,24.15
2023-04-30T09:28:28.950Z,24.42
2023-04-30T09:30:57.844Z,24.14
2023-04-30T09:33:26.129Z,24.52
2023-04-30T09:35:54.156Z,24.31
2023-04-30T09:38:33.256Z,24.42
2023-04-30T09:41:02.214Z,24.41
2023-04-30T09:43:31.121Z,24.35
2023-04-30T09:46:00.279Z,24.22
2023-04-30T09:48:29.052Z,24.53
2023-04-30T09:50:57.049Z,24.54
2023-04-30T09:53:27.595Z,24.68
2023-04-30T09:55:59.352Z,24.78
2023-04-30T09:58:29.488Z,24.72
2023-04-30T10:01:00.183Z,24.83
2023-04-30T10:03:29.633Z,24.87
2023-04-30T10:05:57.744Z,25.03
2023-04-30T10:08:34.811Z,25.11
2023-04-30T10:11:03.903Z,25.24
2023-04-30T10:13:48.083Z,24.89
2023-04-30T10:16:25.781Z,25.70
2023-04-30T10:18:56.253Z,25.49
2023-04-30T10:21:27.083Z,25.57
2023-04-30T10:23:55.595Z,25.75
2023-04-30T10:26:25.011Z,25.80
2023-04-30T10:28:55.424Z,25.83
2023-04-30T10:31:24.733Z,25.26
2023-04-30T10:34:17.517Z,25.28
2023-04-30T10:36:54.895Z,25.43
2023-04-30T10:39:27.869Z,25.62
2023-04-30T10:42:04.576Z,25.40
2023-04-30T10:44:37.422Z,25.48
2023-04-30T10:47:06.950Z,25.13
2023-04-30T10:49:35.441Z,25.38
2023-04-30T10:52:05.269Z,25.08
2023-04-30T10:54:37.868Z,24.68
2023-04-30T10:57:20.532Z,24.99
2023-04-30T11:00:14.703Z,25.16
2023-04-30T11:02:45.303Z,25.81
2023-04-30T11:05:15.726Z,25.73
2023-04-30T11:07:51.459Z,25.80
2023-04-30T11:10:25.033Z,25.72
2023-04-30T11:12:55.450Z,25.87
2023-04-30T11:15:32.265Z,25.76
2023-04-30T11:18:00.293Z,26.13
2023-04-30T11:20:28.576Z,26.22
2023-04-30T11:23:22.123Z,27.22
2023-04-30T11:26:01.607Z,27.73
2023-04-30T11:28:31.993Z,28.49
2023-04-30T11:31:01.275Z,28.60
2023-04-30T11:33:31.912Z,27.86
2023-04-30T11:36:02.040Z,27.68
2023-04-30T11:38:34.651Z,27.77
2023-04-30T11:41:04.726Z,27.60
2023-04-30T11:43:34.813Z,27.67
2023-04-30T11:46:14.293Z,27.47
2023-04-30T11:48:45.212Z,27.51
2023-04-30T11:51:18.644Z,27.43
2023-04-30T11:53:51.893Z,27.29
2023-04-30T11:56:25.868Z,27.83
2023-04-30T11:58:56.095Z,27.73
2023-04-30T12:01:28.728Z,27.41
2023-04-30T12:03:57.784Z,28.15
2023-04-30T12:06:28.955Z,27.27
2023-04-30T12:08:59.278Z,27.38
2023-04-30T12:11:32.262Z,27.39
2023-04-30T12:14:14.825Z,27.68
2023-04-30T12:16:52.522Z,27.08
2023-04-30T12:19:25.664Z,27.91
2023-04-30T12:21:55.358Z,28.63
2023-04-30T12:24:27.663Z,28.54
2023-04-30T12:26:56.104Z,28.75
2023-04-30T12:29:25.847Z,28.27
2023-04-30T12:31:54.915Z,27.51
2023-04-30T12:34:27.229Z,28.19
2023-04-30T12:36:58.603Z,28.43
2023-04-30T12:39:33.474Z,28.81
2023-04-30T12:42:02.013Z,29.34
2023-04-30T12:44:30.093Z,29.82
2023-04-30T12:47:01.117Z,29.74
2023-04-30T12:49:30.790Z,30.15
2023-04-30T12:52:09.879Z,29.62
2023-04-30T12:54:39.314Z,29.37
2023-04-30T12:57:12.689Z,29.29
2023-04-30T12:59:56.660Z,29.46
2023-04-30T13:02:27.638Z,29.04
2023-04-30T13:04:55.814Z,28.60
2023-04-30T13:07:25.009Z,28.22
2023-04-30T13:12:21.511Z,27.63
2023-04-30T13:14:49.566Z,27.80
2023-04-30T13:17:18.085Z,28.04
2023-04-30T13:19:46.161Z,28.51
2023-04-30T13:22:14.520Z,28.92
2023-04-30T13:24:42.519Z,27.80
2023-04-30T13:27:11.817Z,28.00
2023-04-30T13:29:39.835Z,27.81
2023-04-30T13:32:08.581Z,27.97
2023-04-30T13:34:36.540Z,27.87
2023-04-30T13:37:04.900Z,27.48
2023-04-30T13:39:32.916Z,27.27
2023-04-30T13:42:01.977Z,27.09
2023-04-30T13:44:33.131Z,27.40
2023-04-30T13:47:03.019Z,27.46
2023-04-30T13:49:31.131Z,26.62
2023-04-30T13:51:59.467Z,27.21
2023-04-30T13:54:27.634Z,27.75
2023-04-30T13:56:56.155Z,28.34
2023-04-30T13:59:24.159Z,28.44
2023-04-30T14:01:52.543Z,28.18
2023-04-30T14:04:20.654Z,28.27
2023-04-30T14:06:49.362Z,28.53
2023-04-30T14:09:18.580Z,27.88
2023-04-30T14:11:47.225Z,28.07
2023-04-30T14:14:15.268Z,27.78
2023-04-30T14:16:45.109Z,27.41
2023-04-30T14:19:13.209Z,27.41
2023-04-30T14:21:41.501Z,27.72
2023-04-30T14:24:10.879Z,28.01
2023-04-30T14:26:43.013Z,27.53
2023-04-30T14:29:10.959Z,27.94
2023-04-30T14:31:39.269Z,27.37
2023-04-30T14:34:07.322Z,27.95
2023-04-30T14:36:37.092Z,28.35
2023-04-30T14:39:05.343Z,28.63
2023-04-30T14:41:37.883Z,28.56
2023-04-30T14:44:05.858Z,28.61
2023-04-30T14:46:35.001Z,28.56
2023-04-30T14:49:04.610Z,28.74
2023-04-30T14:51:33.523Z,28.93
2023-04-30T14:54:02.967Z,28.92
2023-04-30T14:56:31.598Z,28.71
2023-04-30T14:58:59.474Z,28.20
2023-04-30T15:01:28.683Z,27.67
2023-04-30T15:03:56.863Z,28.05
2023-04-30T15:06:25.319Z,27.60
2023-04-30T15:08:53.432Z,27.86
2023-04-30T15:11:21.935Z,27.87
2023-04-30T15:13:50.234Z,27.60
2023-04-30T15:16:18.674Z,27.57
2023-04-30T15:18:47.264Z,27.14
2023-04-30T15:21:15.563Z,26.94
2023-04-30T15:23:44.049Z,27.02
2023-04-30T15:26:12.480Z,27.31
2023-04-30T15:28:40.572Z,27.06
2023-04-30T15:31:09.060Z,27.36
2023-04-30T15:33:42.170Z,26.99
2023-04-30T15:36:11.239Z,26.89
2023-04-30T15:38:39.452Z,26.69
2023-04-30T15:41:07.712Z,26.82
2023-04-30T15:43:35.790Z,26.72
2023-04-30T15:46:04.181Z,26.51
2023-04-30T15:48:32.122Z,26.61
2023-04-30T15:51:00.397Z,26.65
2023-04-30T15:53:28.263Z,26.40
2023-04-30T15:55:57.325Z,25.99
2023-04-30T15:58:25.191Z,26.25
2023-04-30T16:00:53.987Z,26.20
2023-04-30T16:03:21.972Z,26.14
2023-04-30T16:05:50.303Z,26.09
2023-04-30T16:08:18.300Z,26.13
2023-04-30T16:10:47.250Z,25.79
2023-04-30T16:13:15.301Z,25.64
2023-04-30T16:15:43.517Z,25.91
2023-04-30T16:18:11.614Z,25.94
2023-04-30T16:20:42.806Z,25.58
2023-04-30T16:23:10.780Z,25.76
2023-04-30T16:25:39.068Z,25.79
2023-04-30T16:28:06.937Z,25.61
2023-04-30T16:30:35.801Z,25.54
2023-04-30T16:33:04.025Z,25.38
2023-04-30T16:35:32.303Z,25.46
2023-04-30T16:38:00.315Z,25.32
2023-04-30T16:40:28.686Z,25.20
2023-04-30T16:42:56.895Z,25.33
2023-04-30T16:45:25.318Z,25.61
2023-04-30T16:47:53.555Z,25.23
2023-04-30T16:50:22.422Z,25.40
2023-04-30T16:52:50.489Z,25.42
2023-04-30T16:55:18.949Z,25.44
2023-04-30T16:57:46.794Z,25.40
2023-04-30T17:00:16.926Z,25.07
2023-04-30T17:02:53.478Z,25.01
2023-04-30T17:05:22.454Z,25.06
2023-04-30T17:07:50.381Z,24.93
2023-04-30T17:10:19.767Z,24.82
2023-04-30T17:12:47.790Z,24.97
2023-04-30T17:15:16.167Z,25.00
2023-04-30T17:17:44.099Z,24.97
2023-04-30T17:20:12.752Z,24.95
2023-04-30T17:22:40.756Z,24.86
2023-04-30T17:25:09.764Z,24.74
2023-04-30T17:27:37.872Z,24.93
2023-04-30T17:30:07.004Z,25.00
2023-04-30T17:32:34.896Z,24.98
2023-04-30T17:35:06.266Z,24.92
2023-04-30T17:37:35.552Z,24.90
2023-04-30T17:40:05.887Z,24.97
2023-04-30T17:42:34.246Z,24.88
2023-04-30T17:45:02.904Z,25.02
2023-04-30T17:47:31.964Z,24.78
2023-04-30T17:50:00.525Z,24.59
2023-04-30T17:52:28.415Z,24.64
2023-04-30T17:54:57.128Z,24.62
2023-04-30T17:57:25.438Z,24.83
2023-04-30T17:59:54.486Z,24.43
2023-04-30T18:02:22.731Z,24.69
2023-04-30T18:04:51.296Z,24.60
2023-04-30T18:07:20.097Z,24.51
2023-04-30T18:09:48.688Z,24.42
2023-04-30T18:12:17.848Z,24.45
2023-04-30T18:14:46.204Z,24.62
2023-04-30T18:17:15.656Z,24.39
2023-04-30T18:19:46.701Z,24.43
2023-04-30T18:22:14.613Z,24.48
2023-04-30T18:24:43.006Z,24.47
2023-04-30T18:27:12.885Z,24.28
2023-04-30T18:29:43.615Z,24.31
2023-04-30T18:32:13.981Z,24.31
2023-04-30T18:34:42.690Z,24.29
2023-04-30T18:37:11.033Z,24.15
2023-04-30T18:39:39.324Z,24.09
2023-04-30T18:42:07.281Z,24.08
2023-04-30T18:44:35.659Z,24.01
2023-04-30T18:47:05.084Z,23.74
2023-04-30T18:49:33.339Z,23.89
2023-04-30T18:52:01.437Z,23.76
2023-04-30T18:54:29.966Z,23.92
2023-04-30T18:56:58.690Z,24.11
2023-04-30T18:59:29.050Z,23.85
2023-04-30T19:01:57.107Z,23.93
2023-04-30T19:04:25.484Z,23.79
2023-04-30T19:06:55.381Z,23.94
2023-04-30T19:09:24.136Z,23.81
2023-04-30T19:11:55.713Z,23.76
2023-04-30T19:14:24.541Z,23.82
2023-04-30T19:16:52.754Z,23.76
2023-04-30T19:19:21.252Z,23.69
2023-04-30T19:21:49.289Z,23.64
2023-04-30T19:24:17.630Z,23.63
2023-04-30T19:26:45.576Z,23.65
2023-04-30T19:29:13.868Z,23.64
2023-04-30T19:31:42.000Z,23.57
2023-04-30T19:34:11.298Z,23.57
2023-04-30T19:36:40.346Z,23.39
2023-04-30T19:39:10.901Z,23.42
2023-04-30T19:41:39.894Z,23.41
2023-04-30T19:44:08.872Z,23.28
2023-04-30T19:46:37.027Z,23.25
2023-04-30T19:49:05.561Z,23.31
2023-04-30T19:51:33.541Z,23.38
2023-04-30T19:54:01.955Z,23.39
2023-04-30T19:56:31.321Z,23.39
2023-04-30T19:59:00.137Z,23.43
2023-04-30T20:01:28.914Z,23.37
2023-04-30T20:03:58.073Z,23.21
2023-04-30T20:06:27.612Z,23.11
2023-04-30T20:09:00.269Z,23.16
2023-04-30T20:11:29.492Z,23.10
2023-04-30T20:13:58.872Z,23.03
2023-04-30T20:16:27.857Z,23.16
2023-04-30T20:18:58.409Z,23.01
2023-04-30T20:21:27.236Z,23.00
2023-04-30T20:23:55.779Z,22.94
2023-04-30T20:26:26.482Z,22.88
2023-04-30T20:28:55.298Z,22.99
2023-04-30T20:31:23.407Z,22.89
2023-04-30T20:33:52.256Z,22.90
2023-04-30T20:36:21.284Z,22.88
2023-04-30T20:38:49.713Z,22.83
2023-04-30T20:41:17.622Z,22.99
2023-04-30T20:43:46.035Z,23.01
2023-04-30T20:46:14.964Z,22.81
2023-04-30T20:48:43.391Z,22.78
2023-04-30T20:51:11.372Z,22.83
2023-04-30T20:53:39.896Z,22.70
2023-04-30T20:56:08.245Z,22.74
2023-04-30T20:58:37.132Z,22.67
2023-04-30T21:01:05.113Z,22.81
2023-04-30T21:03:33.552Z,22.70
2023-04-30T21:06:01.784Z,22.70
2023-04-30T21:08:30.265Z,22.85
2023-04-30T21:10:58.315Z,22.89
2023-04-30T21:13:26.650Z,22.71
2023-04-30T21:15:55.077Z,22.63
2023-04-30T21:18:26.771Z,22.60
2023-04-30T21:20:56.556Z,22.71
2023-04-30T21:23:24.938Z,22.67
2023-04-30T21:25:54.865Z,22.64
2023-04-30T21:28:23.465Z,22.74
2023-04-30T21:30:51.412Z,22.65
2023-04-30T21:33:20.571Z,22.57
2023-04-30T21:35:48.509Z,22.62
2023-04-30T21:38:16.826Z,22.55
2023-04-30T21:40:44.907Z,22.52
2023-04-30T21:43:13.318Z,22.48
2023-04-30T21:45:42.711Z,22.39
2023-04-30T21:48:11.808Z,22.46
2023-04-30T21:50:40.309Z,22.50
2023-04-30T21:53:08.677Z,22.41
2023-04-30T21:55:36.594Z,22.31
2023-04-30T21:58:04.979Z,22.24
2023-04-30T22:00:33.123Z,22.53
2023-04-30T22:03:01.452Z,22.35
2023-04-30T22:05:29.429Z,22.36
2023-04-30T22:07:57.928Z,22.38
2023-04-30T22:10:25.914Z,22.24
2023-04-30T22:12:54.497Z,22.31
2023-04-30T22:15:22.842Z,22.26
2023-04-30T22:17:51.633Z,22.25
2023-04-30T22:20:19.707Z,22.02
2023-04-30T22:22:47.975Z,22.02
2023-04-30T22:25:16.181Z,22.03
2023-04-30T22:27:45.936Z,22.00
2023-04-30T22:30:14.117Z,22.22
2023-04-30T22:32:42.588Z,22.33
2023-04-30T22:35:11.505Z,22.12
2023-04-30T22:37:39.837Z,22.28
2023-04-30T22:40:08.468Z,22.25
2023-04-30T22:42:37.038Z,21.79
2023-04-30T22:45:05.477Z,21.66
2023-04-30T22:47:35.444Z,21.55
2023-04-30T22:50:04.136Z,21.45
2023-04-30T22:52:33.344Z,21.62
2023-04-30T22:55:02.739Z,21.64
2023-04-30T22:57:31.080Z,21.64
2023-04-30T22:59:59.455Z,21.95
2023-04-30T23:02:29.003Z,21.62
2023-04-30T23:04:57.226Z,21.73
2023-04-30T23:07:25.597Z,21.60
2023-04-30T23:09:54.025Z,21.76
2023-04-30T23:12:22.725Z,21.47
2023-04-30T23:14:51.140Z,21.71
2023-04-30T23:17:19.639Z,21.69
2023-04-30T23:19:47.584Z,21.70
2023-04-30T23:22:17.478Z,21.77
2023-04-30T23:24:45.578Z,21.58
2023-04-30T23:27:13.928Z,21.54
2023-04-30T23:29:43.222Z,21.61
2023-04-30T23:32:11.715Z,21.84
2023-04-30T23:34:39.784Z,21.86
2023-04-30T23:37:08.025Z,21.57
2023-04-30T23:39:36.160Z,21.49
2023-04-30T23:42:04.528Z,21.45
2023-04-30T23:44:32.752Z,21.62
2023-04-30T23:47:01.162Z,21.45
2023-04-30T23:49:29.128Z,21.45
2023-04-30T23:51:57.549Z,21.59
2023-04-30T23:54:25.611Z,21.79
2023-04-30T23:56:53.946Z,21.47
2023-04-30T23:59:26.175Z,21.56
